sensor_id;sensor_type;location;lat;lon;timestamp;pressure;altitude;pressure_sealevel;temperature;humidity
70971;BME280;58632;51.718;19.446;2022-09-03T00:01:32;100046.41;;;13.41;54.06
70971;BME280;58632;51.718;19.446;2022-09-03T00:04:11;100048.33;;;13.42;53.84
70971;BME280;58632;51.718;19.446;2022-09-03T00:06:51;100049.63;;;13.35;54.07
70971;BME280;58632;51.718;19.446;2022-09-03T00:09:30;100049.45;;;13.27;54.08
70971;BME280;58632;51.718;19.446;2022-09-03T00:12:08;100047.46;;;13.23;54.21
70971;BME280;58632;51.718;19.446;2022-09-03T00:14:42;100049.97;;;13.20;54.45
70971;BME280;58632;51.718;19.446;2022-09-03T00:17:14;100049.69;;;13.18;54.40
70971;BME280;58632;51.718;19.446;2022-09-03T00:22:42;100046.83;;;13.13;54.62
70971;BME280;58632;51.718;19.446;2022-09-03T00:25:16;100048.45;;;13.14;54.81
70971;BME280;58632;51.718;19.446;2022-09-03T00:27:44;100049.27;;;13.14;54.73
70971;BME280;58632;51.718;19.446;2022-09-03T00:30:16;100051.36;;;13.13;54.97
70971;BME280;58632;51.718;19.446;2022-09-03T00:32:44;100048.86;;;13.14;54.97
70971;BME280;58632;51.718;19.446;2022-09-03T00:35:33;100049.85;;;13.13;54.83
70971;BME280;58632;51.718;19.446;2022-09-03T00:38:00;100048.90;;;13.13;54.76
70971;BME280;58632;51.718;19.446;2022-09-03T00:46:08;100044.98;;;13.17;54.93
70971;BME280;58632;51.718;19.446;2022-09-03T00:51:43;100045.11;;;13.09;54.89
70971;BME280;58632;51.718;19.446;2022-09-03T00:54:58;100046.48;;;12.98;55.12
70971;BME280;58632;51.718;19.446;2022-09-03T01:13:17;100048.36;;;12.53;56.39
70971;BME280;58632;51.718;19.446;2022-09-03T01:16:08;100049.03;;;12.51;56.69
70971;BME280;58632;51.718;19.446;2022-09-03T01:43:04;100035.58;;;11.57;59.95
70971;BME280;58632;51.718;19.446;2022-09-03T01:51:02;100035.94;;;11.28;60.87
70971;BME280;58632;51.718;19.446;2022-09-03T01:53:44;100031.91;;;11.18;61.37
70971;BME280;58632;51.718;19.446;2022-09-03T01:59:06;100026.59;;;11.11;61.84
70971;BME280;58632;51.718;19.446;2022-09-03T02:01:41;100028.32;;;11.11;61.89
70971;BME280;58632;51.718;19.446;2022-09-03T02:04:20;100023.67;;;11.09;62.34
70971;BME280;58632;51.718;19.446;2022-09-03T02:06:49;100026.55;;;11.13;62.10
70971;BME280;58632;51.718;19.446;2022-09-03T02:09:14;100023.71;;;11.15;61.98
70971;BME280;58632;51.718;19.446;2022-09-03T02:11:41;100026.29;;;11.09;62.19
70971;BME280;58632;51.718;19.446;2022-09-03T02:14:08;100026.11;;;11.04;62.08
70971;BME280;58632;51.718;19.446;2022-09-03T02:16:34;100025.91;;;11.03;62.23
70971;BME280;58632;51.718;19.446;2022-09-03T02:19:03;100028.37;;;11.07;62.07
70971;BME280;58632;51.718;19.446;2022-09-03T02:21:38;100027.27;;;11.10;62.09
70971;BME280;58632;51.718;19.446;2022-09-03T02:24:07;100028.09;;;11.10;61.92
70971;BME280;58632;51.718;19.446;2022-09-03T02:26:34;100030.86;;;11.07;61.72
70971;BME280;58632;51.718;19.446;2022-09-03T02:29:01;100027.40;;;11.05;61.98
70971;BME280;58632;51.718;19.446;2022-09-03T02:31:27;100031.36;;;11.04;61.93
70971;BME280;58632;51.718;19.446;2022-09-03T02:33:55;100029.49;;;10.94;62.32
70971;BME280;58632;51.718;19.446;2022-09-03T02:36:43;100027.32;;;10.87;62.52
70971;BME280;58632;51.718;19.446;2022-09-03T02:39:11;100028.59;;;10.82;62.41
70971;BME280;58632;51.718;19.446;2022-09-03T02:41:37;100029.60;;;10.74;62.83
70971;BME280;58632;51.718;19.446;2022-09-03T02:44:15;100026.98;;;10.68;62.97
70971;BME280;58632;51.718;19.446;2022-09-03T02:46:53;100033.58;;;10.67;62.79
70971;BME280;58632;51.718;19.446;2022-09-03T02:49:21;100030.20;;;10.69;63.10
70971;BME280;58632;51.718;19.446;2022-09-03T02:51:47;100034.58;;;10.67;62.93
70971;BME280;58632;51.718;19.446;2022-09-03T02:54:13;100035.73;;;10.68;63.13
70971;BME280;58632;51.718;19.446;2022-09-03T02:56:39;100037.97;;;10.65;63.15
70971;BME280;58632;51.718;19.446;2022-09-03T02:59:06;100035.55;;;10.55;63.28
70971;BME280;58632;51.718;19.446;2022-09-03T03:01:33;100030.93;;;10.45;63.85
70971;BME280;58632;51.718;19.446;2022-09-03T03:03:59;100030.75;;;10.34;63.78
70971;BME280;58632;51.718;19.446;2022-09-03T03:06:25;100030.74;;;10.27;64.25
70971;BME280;58632;51.718;19.446;2022-09-03T03:08:51;100030.25;;;10.24;64.17
70971;BME280;58632;51.718;19.446;2022-09-03T03:11:20;100029.10;;;10.27;64.45
70971;BME280;58632;51.718;19.446;2022-09-03T03:13:46;100025.14;;;10.25;64.41
70971;BME280;58632;51.718;19.446;2022-09-03T03:16:14;100028.05;;;10.27;64.52
70971;BME280;58632;51.718;19.446;2022-09-03T03:18:41;100026.02;;;10.25;64.79
70971;BME280;58632;51.718;19.446;2022-09-03T03:21:09;100025.66;;;10.26;64.58
70971;BME280;58632;51.718;19.446;2022-09-03T03:23:36;100023.59;;;10.26;64.67
70971;BME280;58632;51.718;19.446;2022-09-03T03:26:08;100025.08;;;10.21;64.87
70971;BME280;58632;51.718;19.446;2022-09-03T03:28:34;100027.98;;;10.15;64.54
70971;BME280;58632;51.718;19.446;2022-09-03T03:31:09;100031.00;;;10.14;65.21
70971;BME280;58632;51.718;19.446;2022-09-03T03:33:37;100030.04;;;10.14;65.07
70971;BME280;58632;51.718;19.446;2022-09-03T03:36:08;100033.54;;;10.09;65.08
70971;BME280;58632;51.718;19.446;2022-09-03T03:38:35;100033.89;;;10.10;64.97
70971;BME280;58632;51.718;19.446;2022-09-03T03:41:12;100039.08;;;10.13;65.13
70971;BME280;58632;51.718;19.446;2022-09-03T03:43:38;100039.34;;;10.20;65.20
70971;BME280;58632;51.718;19.446;2022-09-03T03:46:04;100042.74;;;10.19;65.01
70971;BME280;58632;51.718;19.446;2022-09-03T03:48:30;100038.64;;;10.11;64.72
70971;BME280;58632;51.718;19.446;2022-09-03T03:51:00;100036.52;;;10.12;65.03
70971;BME280;58632;51.718;19.446;2022-09-03T03:53:27;100036.87;;;10.18;65.03
70971;BME280;58632;51.718;19.446;2022-09-03T03:55:58;100039.23;;;10.24;64.76
70971;BME280;58632;51.718;19.446;2022-09-03T03:58:24;100042.21;;;10.35;64.38
70971;BME280;58632;51.718;19.446;2022-09-03T04:00:51;100044.18;;;10.41;64.11
70971;BME280;58632;51.718;19.446;2022-09-03T04:03:17;100051.63;;;10.37;63.76
70971;BME280;58632;51.718;19.446;2022-09-03T04:05:53;100051.48;;;10.32;64.15
70971;BME280;58632;51.718;19.446;2022-09-03T04:08:19;100058.27;;;10.32;64.37
70971;BME280;58632;51.718;19.446;2022-09-03T04:10:44;100054.94;;;10.24;64.67
70971;BME280;58632;51.718;19.446;2022-09-03T04:13:11;100054.69;;;10.14;64.78
70971;BME280;58632;51.718;19.446;2022-09-03T04:15:36;100060.29;;;10.08;64.90
70971;BME280;58632;51.718;19.446;2022-09-03T04:18:03;100062.76;;;10.03;64.92
70971;BME280;58632;51.718;19.446;2022-09-03T04:20:28;100064.42;;;10.02;65.30
70971;BME280;58632;51.718;19.446;2022-09-03T04:22:59;100062.40;;;10.02;65.65
70971;BME280;58632;51.718;19.446;2022-09-03T04:25:25;100059.78;;;10.01;65.60
70971;BME280;58632;51.718;19.446;2022-09-03T04:27:51;100057.75;;;10.10;65.92
70971;BME280;58632;51.718;19.446;2022-09-03T04:30:17;100052.46;;;10.28;65.85
70971;BME280;58632;51.718;19.446;2022-09-03T04:32:43;100055.46;;;10.43;65.30
70971;BME280;58632;51.718;19.446;2022-09-03T04:35:23;100055.39;;;10.46;64.83
70971;BME280;58632;51.718;19.446;2022-09-03T04:37:50;100053.91;;;10.48;65.09
70971;BME280;58632;51.718;19.446;2022-09-03T04:40:16;100059.30;;;10.49;64.81
70971;BME280;58632;51.718;19.446;2022-09-03T04:42:42;100055.58;;;10.55;65.02
70971;BME280;58632;51.718;19.446;2022-09-03T04:45:08;100054.49;;;10.71;64.79
70971;BME280;58632;51.718;19.446;2022-09-03T04:47:34;100051.30;;;10.89;64.39
70971;BME280;58632;51.718;19.446;2022-09-03T04:50:04;100054.10;;;10.97;64.17
70971;BME280;58632;51.718;19.446;2022-09-03T04:52:31;100053.80;;;11.19;63.92
70971;BME280;58632;51.718;19.446;2022-09-03T04:54:57;100051.79;;;11.56;63.37
70971;BME280;58632;51.718;19.446;2022-09-03T04:57:23;100052.64;;;11.89;62.71
70971;BME280;58632;51.718;19.446;2022-09-03T04:59:49;100054.98;;;12.35;61.39
70971;BME280;58632;51.718;19.446;2022-09-03T05:02:15;100060.84;;;12.76;60.62
70971;BME280;58632;51.718;19.446;2022-09-03T05:04:41;100057.74;;;12.95;60.30
70971;BME280;58632;51.718;19.446;2022-09-03T05:07:07;100054.74;;;13.12;59.61
70971;BME280;58632;51.718;19.446;2022-09-03T05:09:33;100057.20;;;13.23;59.10
70971;BME280;58632;51.718;19.446;2022-09-03T05:11:59;100058.16;;;13.34;58.21
70971;BME280;58632;51.718;19.446;2022-09-03T05:14:25;100055.50;;;13.49;58.45
70971;BME280;58632;51.718;19.446;2022-09-03T05:16:51;100053.64;;;13.64;57.37
70971;BME280;58632;51.718;19.446;2022-09-03T05:19:17;100053.12;;;14.02;56.40
70971;BME280;58632;51.718;19.446;2022-09-03T05:21:43;100052.52;;;14.41;55.37
70971;BME280;58632;51.718;19.446;2022-09-03T05:24:09;100050.55;;;14.71;55.17
70971;BME280;58632;51.718;19.446;2022-09-03T05:26:37;100055.68;;;14.88;54.75
70971;BME280;58632;51.718;19.446;2022-09-03T05:29:05;100054.20;;;15.08;54.21
70971;BME280;58632;51.718;19.446;2022-09-03T05:31:32;100051.23;;;15.09;53.83
70971;BME280;58632;51.718;19.446;2022-09-03T05:34:01;100052.87;;;15.16;53.37
70971;BME280;58632;51.718;19.446;2022-09-03T05:36:30;100057.33;;;15.20;53.04
70971;BME280;58632;51.718;19.446;2022-09-03T05:38:57;100060.31;;;15.27;52.32
70971;BME280;58632;51.718;19.446;2022-09-03T05:41:23;100064.84;;;15.83;51.76
70971;BME280;58632;51.718;19.446;2022-09-03T05:43:50;100063.75;;;16.53;51.17
70971;BME280;58632;51.718;19.446;2022-09-03T05:46:20;100060.76;;;17.45;50.06
70971;BME280;58632;51.718;19.446;2022-09-03T05:48:45;100058.86;;;18.21;48.13
70971;BME280;58632;51.718;19.446;2022-09-03T05:51:14;100053.88;;;18.79;46.19
70971;BME280;58632;51.718;19.446;2022-09-03T05:53:42;100051.70;;;19.32;44.90
70971;BME280;58632;51.718;19.446;2022-09-03T05:56:16;100056.35;;;19.76;43.51
70971;BME280;58632;51.718;19.446;2022-09-03T05:58:47;100056.63;;;20.17;42.72
70971;BME280;58632;51.718;19.446;2022-09-03T06:01:17;100059.02;;;20.64;41.69
70971;BME280;58632;51.718;19.446;2022-09-03T06:03:45;100060.40;;;21.05;41.06
70971;BME280;58632;51.718;19.446;2022-09-03T06:06:12;100058.27;;;21.55;40.46
70971;BME280;58632;51.718;19.446;2022-09-03T06:08:38;100065.48;;;21.97;39.21
70971;BME280;58632;51.718;19.446;2022-09-03T06:11:05;100068.34;;;22.54;39.31
70971;BME280;58632;51.718;19.446;2022-09-03T06:13:32;100070.61;;;23.15;38.69
70971;BME280;58632;51.718;19.446;2022-09-03T06:16:00;100071.35;;;23.52;36.86
70971;BME280;58632;51.718;19.446;2022-09-03T06:18:26;100068.42;;;23.80;36.21
70971;BME280;58632;51.718;19.446;2022-09-03T06:21:00;100066.27;;;23.96;35.62
70971;BME280;58632;51.718;19.446;2022-09-03T06:23:27;100062.72;;;23.88;35.16
70971;BME280;58632;51.718;19.446;2022-09-03T06:26:11;100061.33;;;23.70;34.99
70971;BME280;58632;51.718;19.446;2022-09-03T06:28:39;100059.86;;;23.49;34.84
70971;BME280;58632;51.718;19.446;2022-09-03T06:31:09;100065.54;;;23.50;34.52
70971;BME280;58632;51.718;19.446;2022-09-03T06:33:36;100066.37;;;23.38;35.26
70971;BME280;58632;51.718;19.446;2022-09-03T06:36:05;100064.21;;;23.34;34.42
70971;BME280;58632;51.718;19.446;2022-09-03T06:38:32;100061.73;;;23.37;33.89
70971;BME280;58632;51.718;19.446;2022-09-03T06:41:09;100063.12;;;23.23;33.92
70971;BME280;58632;51.718;19.446;2022-09-03T06:43:40;100064.30;;;23.19;34.09
70971;BME280;58632;51.718;19.446;2022-09-03T06:46:15;100068.63;;;23.19;34.28
70971;BME280;58632;51.718;19.446;2022-09-03T06:48:41;100070.30;;;23.21;33.56
70971;BME280;58632;51.718;19.446;2022-09-03T06:51:12;100073.34;;;23.17;33.73
70971;BME280;58632;51.718;19.446;2022-09-03T06:53:40;100069.42;;;23.20;33.58
70971;BME280;58632;51.718;19.446;2022-09-03T06:56:09;100072.45;;;23.17;33.35
70971;BME280;58632;51.718;19.446;2022-09-03T06:58:38;100069.13;;;23.08;33.94
70971;BME280;58632;51.718;19.446;2022-09-03T07:01:07;100070.30;;;23.12;33.13
70971;BME280;58632;51.718;19.446;2022-09-03T07:03:34;100062.26;;;23.04;33.16
70971;BME280;58632;51.718;19.446;2022-09-03T07:06:15;100062.89;;;23.01;32.51
70971;BME280;58632;51.718;19.446;2022-09-03T07:08:41;100055.86;;;22.81;32.54
70971;BME280;58632;51.718;19.446;2022-09-03T07:11:09;100056.40;;;22.72;33.75
70971;BME280;58632;51.718;19.446;2022-09-03T07:13:38;100057.14;;;22.80;33.10
70971;BME280;58632;51.718;19.446;2022-09-03T07:16:17;100062.96;;;22.80;32.12
70971;BME280;58632;51.718;19.446;2022-09-03T07:18:43;100058.97;;;22.80;32.11
70971;BME280;58632;51.718;19.446;2022-09-03T07:21:15;100062.64;;;22.83;32.72
70971;BME280;58632;51.718;19.446;2022-09-03T07:23:41;100063.35;;;22.84;32.79
70971;BME280;58632;51.718;19.446;2022-09-03T07:26:10;100061.66;;;22.94;31.99
70971;BME280;58632;51.718;19.446;2022-09-03T07:28:38;100067.19;;;22.97;31.20
70971;BME280;58632;51.718;19.446;2022-09-03T07:31:08;100062.41;;;22.98;32.64
70971;BME280;58632;51.718;19.446;2022-09-03T07:33:35;100065.43;;;23.22;32.09
70971;BME280;58632;51.718;19.446;2022-09-03T07:36:06;100062.92;;;23.33;31.51
70971;BME280;58632;51.718;19.446;2022-09-03T07:38:33;100062.92;;;23.38;31.90
70971;BME280;58632;51.718;19.446;2022-09-03T07:41:01;100064.92;;;23.39;32.49
70971;BME280;58632;51.718;19.446;2022-09-03T07:43:28;100064.98;;;23.46;31.11
70971;BME280;58632;51.718;19.446;2022-09-03T07:45:55;100064.34;;;23.49;30.63
70971;BME280;58632;51.718;19.446;2022-09-03T07:48:22;100063.95;;;23.47;30.48
70971;BME280;58632;51.718;19.446;2022-09-03T07:50:48;100065.98;;;23.38;30.44
70971;BME280;58632;51.718;19.446;2022-09-03T07:53:17;100068.28;;;23.37;30.63
70971;BME280;58632;51.718;19.446;2022-09-03T07:55:44;100067.86;;;23.42;31.40
70971;BME280;58632;51.718;19.446;2022-09-03T07:58:11;100074.59;;;23.35;31.66
70971;BME280;58632;51.718;19.446;2022-09-03T08:00:38;100076.03;;;23.28;31.49
70971;BME280;58632;51.718;19.446;2022-09-03T08:03:05;100072.55;;;23.18;30.90
70971;BME280;58632;51.718;19.446;2022-09-03T08:05:34;100074.60;;;23.28;31.55
70971;BME280;58632;51.718;19.446;2022-09-03T08:08:04;100070.33;;;23.49;30.93
70971;BME280;58632;51.718;19.446;2022-09-03T08:10:34;100068.09;;;23.52;29.81
70971;BME280;58632;51.718;19.446;2022-09-03T08:13:00;100071.38;;;23.46;29.81
70971;BME280;58632;51.718;19.446;2022-09-03T08:15:31;100070.27;;;23.40;30.26
70971;BME280;58632;51.718;19.446;2022-09-03T08:17:57;100068.13;;;23.34;29.60
70971;BME280;58632;51.718;19.446;2022-09-03T08:20:25;100068.84;;;23.35;29.41
70971;BME280;58632;51.718;19.446;2022-09-03T08:22:52;100072.91;;;23.27;28.97
70971;BME280;58632;51.718;19.446;2022-09-03T08:25:17;100073.01;;;23.22;29.00
70971;BME280;58632;51.718;19.446;2022-09-03T08:27:43;100075.33;;;23.21;29.66
70971;BME280;58632;51.718;19.446;2022-09-03T08:30:09;100072.93;;;23.26;29.48
70971;BME280;58632;51.718;19.446;2022-09-03T08:32:37;100074.61;;;23.19;28.92
70971;BME280;58632;51.718;19.446;2022-09-03T08:35:06;100080.44;;;23.15;29.10
70971;BME280;58632;51.718;19.446;2022-09-03T08:37:34;100077.02;;;23.12;29.37
70971;BME280;58632;51.718;19.446;2022-09-03T08:39:59;100076.85;;;23.15;29.35
70971;BME280;58632;51.718;19.446;2022-09-03T08:42:48;100076.45;;;23.18;29.80
70971;BME280;58632;51.718;19.446;2022-09-03T08:45:18;100076.30;;;23.09;29.74
70971;BME280;58632;51.718;19.446;2022-09-03T08:47:58;100075.81;;;22.98;29.89
70971;BME280;58632;51.718;19.446;2022-09-03T08:50:30;100070.70;;;22.94;30.14
70971;BME280;58632;51.718;19.446;2022-09-03T08:53:07;100068.52;;;22.96;30.31
70971;BME280;58632;51.718;19.446;2022-09-03T08:55:45;100069.84;;;23.00;30.04
70971;BME280;58632;51.718;19.446;2022-09-03T08:58:17;100066.81;;;23.01;30.23
70971;BME280;58632;51.718;19.446;2022-09-03T09:00:56;100067.20;;;23.03;30.99
70971;BME280;58632;51.718;19.446;2022-09-03T09:06:28;100064.17;;;23.10;31.75
70971;BME280;58632;51.718;19.446;2022-09-03T09:09:13;100069.51;;;23.25;31.12
70971;BME280;58632;51.718;19.446;2022-09-03T09:12:08;100069.58;;;23.22;31.93
70971;BME280;58632;51.718;19.446;2022-09-03T09:23:03;100060.58;;;23.02;30.30
70971;BME280;58632;51.718;19.446;2022-09-03T09:25:31;100059.36;;;22.96;30.52
70971;BME280;58632;51.718;19.446;2022-09-03T09:30:44;100062.25;;;22.97;31.43
70971;BME280;58632;51.718;19.446;2022-09-03T09:33:13;100054.20;;;22.99;31.46
70971;BME280;58632;51.718;19.446;2022-09-03T09:35:38;100056.17;;;22.93;31.05
70971;BME280;58632;51.718;19.446;2022-09-03T09:38:07;100054.82;;;22.81;31.03
70971;BME280;58632;51.718;19.446;2022-09-03T09:40:41;100049.71;;;22.75;31.69
70971;BME280;58632;51.718;19.446;2022-09-03T09:43:16;100050.27;;;22.77;31.13
70971;BME280;58632;51.718;19.446;2022-09-03T09:45:44;100043.48;;;22.78;32.04
70971;BME280;58632;51.718;19.446;2022-09-03T09:48:26;100046.92;;;22.80;32.59
70971;BME280;58632;51.718;19.446;2022-09-03T09:51:08;100050.12;;;22.78;32.18
70971;BME280;58632;51.718;19.446;2022-09-03T09:53:35;100048.75;;;22.78;32.62
70971;BME280;58632;51.718;19.446;2022-09-03T09:56:01;100047.72;;;22.83;31.86
70971;BME280;58632;51.718;19.446;2022-09-03T09:58:27;100044.13;;;22.80;31.89
70971;BME280;58632;51.718;19.446;2022-09-03T10:03:20;100040.38;;;22.61;31.51
70971;BME280;58632;51.718;19.446;2022-09-03T10:06:06;100048.02;;;22.53;31.30
70971;BME280;58632;51.718;19.446;2022-09-03T10:09:04;100044.83;;;22.55;31.78
70971;BME280;58632;51.718;19.446;2022-09-03T10:11:31;100039.89;;;22.69;32.38
70971;BME280;58632;51.718;19.446;2022-09-03T10:14:00;100039.67;;;22.71;32.29
70971;BME280;58632;51.718;19.446;2022-09-03T10:16:30;100036.64;;;22.71;30.98
70971;BME280;58632;51.718;19.446;2022-09-03T10:19:16;100035.67;;;22.69;31.36
70971;BME280;58632;51.718;19.446;2022-09-03T10:27:22;100031.92;;;22.75;31.65
70971;BME280;58632;51.718;19.446;2022-09-03T10:29:48;100032.16;;;22.68;31.33
70971;BME280;58632;51.718;19.446;2022-09-03T10:35:26;100032.48;;;22.61;32.42
70971;BME280;58632;51.718;19.446;2022-09-03T10:38:04;100033.44;;;22.64;31.97
70971;BME280;58632;51.718;19.446;2022-09-03T10:40:47;100030.25;;;22.69;31.97
70971;BME280;58632;51.718;19.446;2022-09-03T10:46:09;100028.02;;;22.66;30.23
70971;BME280;58632;51.718;19.446;2022-09-03T10:48:50;100024.19;;;22.60;30.67
70971;BME280;58632;51.718;19.446;2022-09-03T11:04:50;100013.09;;;22.48;31.17
70971;BME280;58632;51.718;19.446;2022-09-03T11:07:27;100008.41;;;22.53;31.33
70971;BME280;58632;51.718;19.446;2022-09-03T11:10:09;100007.05;;;22.48;31.53
70971;BME280;58632;51.718;19.446;2022-09-03T11:12:41;100011.42;;;22.43;31.55
70971;BME280;58632;51.718;19.446;2022-09-03T11:17:55;99999.23;;;22.48;32.01
70971;BME280;58632;51.718;19.446;2022-09-03T11:20:25;99994.85;;;22.50;31.36
70971;BME280;58632;51.718;19.446;2022-09-03T11:22:57;99997.48;;;22.44;31.22
70971;BME280;58632;51.718;19.446;2022-09-03T11:25:30;99996.89;;;22.29;31.03
70971;BME280;58632;51.718;19.446;2022-09-03T11:31:11;99990.94;;;21.79;30.20
70971;BME280;58632;51.718;19.446;2022-09-03T11:33:55;99992.56;;;21.67;31.38
70971;BME280;58632;51.718;19.446;2022-09-03T11:36:29;99993.35;;;21.61;31.73
70971;BME280;58632;51.718;19.446;2022-09-03T11:38:55;99987.74;;;21.53;31.89
70971;BME280;58632;51.718;19.446;2022-09-03T11:41:24;99983.11;;;21.49;32.82
70971;BME280;58632;51.718;19.446;2022-09-03T11:43:51;99983.52;;;21.52;32.75
70971;BME280;58632;51.718;19.446;2022-09-03T11:48:53;99984.70;;;21.50;32.55
70971;BME280;58632;51.718;19.446;2022-09-03T11:56:39;99986.13;;;21.49;32.50
70971;BME280;58632;51.718;19.446;2022-09-03T12:02:00;99978.12;;;21.54;32.41
70971;BME280;58632;51.718;19.446;2022-09-03T12:04:59;99977.24;;;21.56;33.38
70971;BME280;58632;51.718;19.446;2022-09-03T12:10:53;99971.46;;;21.46;32.95
70971;BME280;58632;51.718;19.446;2022-09-03T12:18:47;99970.27;;;21.33;33.84
70971;BME280;58632;51.718;19.446;2022-09-03T12:21:18;99968.17;;;21.40;33.74
70971;BME280;58632;51.718;19.446;2022-09-03T12:23:51;99962.96;;;21.48;33.38
70971;BME280;58632;51.718;19.446;2022-09-03T12:26:23;99960.30;;;21.59;32.94
70971;BME280;58632;51.718;19.446;2022-09-03T12:28:55;99955.89;;;21.73;32.71
70971;BME280;58632;51.718;19.446;2022-09-03T12:31:29;99955.23;;;21.98;33.13
70971;BME280;58632;51.718;19.446;2022-09-03T12:34:07;99955.85;;;22.22;32.56
70971;BME280;58632;51.718;19.446;2022-09-03T12:36:39;99955.55;;;22.38;31.56
70971;BME280;58632;51.718;19.446;2022-09-03T12:39:16;99952.91;;;22.34;30.92
70971;BME280;58632;51.718;19.446;2022-09-03T12:49:38;99944.38;;;22.36;30.36
70971;BME280;58632;51.718;19.446;2022-09-03T12:52:17;99938.57;;;22.40;29.19
70971;BME280;58632;51.718;19.446;2022-09-03T12:57:46;99933.85;;;22.54;29.84
70971;BME280;58632;51.718;19.446;2022-09-03T13:00:15;99934.81;;;22.62;30.01
70971;BME280;58632;51.718;19.446;2022-09-03T13:02:52;99935.05;;;22.65;30.57
70971;BME280;58632;51.718;19.446;2022-09-03T13:05:26;99934.33;;;22.70;30.30
70971;BME280;58632;51.718;19.446;2022-09-03T13:07:57;99932.40;;;22.73;30.27
70971;BME280;58632;51.718;19.446;2022-09-03T13:10:31;99928.41;;;22.69;30.72
70971;BME280;58632;51.718;19.446;2022-09-03T13:13:00;99924.77;;;22.62;31.27
70971;BME280;58632;51.718;19.446;2022-09-03T13:15:27;99922.61;;;22.62;32.29
70971;BME280;58632;51.718;19.446;2022-09-03T13:18:21;99925.94;;;22.71;32.55
70971;BME280;58632;51.718;19.446;2022-09-03T13:21:10;99926.86;;;22.91;31.90
70971;BME280;58632;51.718;19.446;2022-09-03T13:34:05;99923.95;;;22.72;33.22
70971;BME280;58632;51.718;19.446;2022-09-03T13:36:57;99926.25;;;22.81;32.58
70971;BME280;58632;51.718;19.446;2022-09-03T13:39:42;99927.30;;;22.76;31.42
70971;BME280;58632;51.718;19.446;2022-09-03T13:42:17;99930.48;;;22.74;31.73
70971;BME280;58632;51.718;19.446;2022-09-03T13:45:00;99927.20;;;22.81;32.16
70971;BME280;58632;51.718;19.446;2022-09-03T13:47:36;99920.95;;;23.06;32.41
70971;BME280;58632;51.718;19.446;2022-09-03T13:50:24;99917.16;;;23.20;32.23
70971;BME280;58632;51.718;19.446;2022-09-03T13:52:56;99914.33;;;23.27;32.21
70971;BME280;58632;51.718;19.446;2022-09-03T13:55:36;99919.00;;;23.52;31.92
70971;BME280;58632;51.718;19.446;2022-09-03T13:58:14;99918.15;;;23.66;32.35
70971;BME280;58632;51.718;19.446;2022-09-03T14:00:46;99911.08;;;23.72;31.14
70971;BME280;58632;51.718;19.446;2022-09-03T14:03:31;99915.55;;;23.75;30.89
70971;BME280;58632;51.718;19.446;2022-09-03T14:06:12;99911.23;;;23.60;30.57
70971;BME280;58632;51.718;19.446;2022-09-03T14:09:00;99911.07;;;23.57;31.32
70971;BME280;58632;51.718;19.446;2022-09-03T14:14:17;99910.80;;;23.31;31.11
70971;BME280;58632;51.718;19.446;2022-09-03T14:17:05;99911.22;;;23.07;31.84
70971;BME280;58632;51.718;19.446;2022-09-03T14:25:29;99909.11;;;22.79;31.94
70971;BME280;58632;51.718;19.446;2022-09-03T14:28:14;99909.31;;;22.90;31.74
70971;BME280;58632;51.718;19.446;2022-09-03T14:30:56;99913.79;;;23.00;31.99
70971;BME280;58632;51.718;19.446;2022-09-03T14:39:31;99914.42;;;23.23;31.12
70971;BME280;58632;51.718;19.446;2022-09-03T14:42:09;99910.12;;;23.23;30.80
70971;BME280;58632;51.718;19.446;2022-09-03T14:50:27;99910.91;;;22.93;32.13
70971;BME280;58632;51.718;19.446;2022-09-03T14:53:25;99906.45;;;22.91;32.58
70971;BME280;58632;51.718;19.446;2022-09-03T14:56:00;99903.58;;;22.90;33.13
70971;BME280;58632;51.718;19.446;2022-09-03T15:01:28;99909.67;;;22.69;33.16
70971;BME280;58632;51.718;19.446;2022-09-03T15:03:56;99910.58;;;22.49;32.53
70971;BME280;58632;51.718;19.446;2022-09-03T15:06:35;99910.36;;;22.29;33.44
70971;BME280;58632;51.718;19.446;2022-09-03T15:09:21;99907.00;;;22.23;33.45
70971;BME280;58632;51.718;19.446;2022-09-03T15:14:52;99899.44;;;22.35;33.63
70971;BME280;58632;51.718;19.446;2022-09-03T15:25:39;99908.13;;;21.81;34.10
70971;BME280;58632;51.718;19.446;2022-09-03T15:42:50;99914.86;;;21.07;35.60
70971;BME280;58632;51.718;19.446;2022-09-03T15:45:48;99909.30;;;20.96;35.46
70971;BME280;58632;51.718;19.446;2022-09-03T15:48:22;99910.94;;;20.89;35.73
70971;BME280;58632;51.718;19.446;2022-09-03T15:51:04;99908.46;;;20.88;36.08
70971;BME280;58632;51.718;19.446;2022-09-03T15:56:27;99910.89;;;20.96;36.06
70971;BME280;58632;51.718;19.446;2022-09-03T15:59:14;99910.98;;;20.97;35.96
70971;BME280;58632;51.718;19.446;2022-09-03T16:01:49;99907.70;;;20.96;35.78
70971;BME280;58632;51.718;19.446;2022-09-03T16:04:31;99907.65;;;20.99;36.04
70971;BME280;58632;51.718;19.446;2022-09-03T16:07:08;99902.77;;;20.94;36.01
70971;BME280;58632;51.718;19.446;2022-09-03T16:15:24;99907.59;;;20.75;35.59
70971;BME280;58632;51.718;19.446;2022-09-03T16:23:01;99908.29;;;20.53;35.85
70971;BME280;58632;51.718;19.446;2022-09-03T16:25:34;99910.02;;;20.50;36.00
70971;BME280;58632;51.718;19.446;2022-09-03T16:28:31;99911.23;;;20.42;35.91
70971;BME280;58632;51.718;19.446;2022-09-03T16:31:25;99909.60;;;20.37;35.88
70971;BME280;58632;51.718;19.446;2022-09-03T16:36:36;99909.36;;;20.27;36.13
70971;BME280;58632;51.718;19.446;2022-09-03T16:42:25;99912.83;;;20.25;36.43
70971;BME280;58632;51.718;19.446;2022-09-03T16:45:18;99911.46;;;20.22;36.30